sensor_id;sensor_type;location;lat;lon;timestamp;pressure;altitude;pressure_sealevel;temperature;humidity
59789;BME280;47353;51.614;5.530;2023-12-28T00:01:22;100787.00;;;9.99;97.51
59789;BME280;47353;51.614;5.530;2023-12-28T00:03:47;100798.38;;;10.03;98.19
59789;BME280;47353;51.614;5.530;2023-12-28T00:06:13;100788.97;;;9.94;98.44
59789;BME280;47353;51.614;5.530;2023-12-28T00:08:38;100802.25;;;10.02;98.56
59789;BME280;47353;51.614;5.530;2023-12-28T00:11:04;100790.13;;;10.18;98.21
59789;BME280;47353;51.614;5.530;2023-12-28T00:13:29;100795.66;;;10.08;99.04
59789;BME280;47353;51.614;5.530;2023-12-28T00:15:55;100793.91;;;9.92;100.00
59789;BME280;47353;51.614;5.530;2023-12-28T00:18:20;100798.97;;;10.10;99.82
59789;BME280;47353;51.614;5.530;2023-12-28T00:20:45;100807.75;;;9.82;100.00
59789;BME280;47353;51.614;5.530;2023-12-28T00:23:11;100808.84;;;9.86;100.00
59789;BME280;47353;51.614;5.530;2023-12-28T00:25:36;100811.09;;;9.99;100.00
59789;BME280;47353;51.614;5.530;2023-12-28T00:28:02;100810.50;;;9.82;100.00
59789;BME280;47353;51.614;5.530;2023-12-28T00:30:27;100789.75;;;9.74;100.00
59789;BME280;47353;51.614;5.530;2023-12-28T00:32:53;100825.16;;;9.77;100.00
59789;BME280;47353;51.614;5.530;2023-12-28T00:35:18;100823.19;;;9.73;100.00
59789;BME280;47353;51.614;5.530;2023-12-28T00:37:43;100830.94;;;9.76;100.00
59789;BME280;47353;51.614;5.530;2023-12-28T00:40:09;100826.72;;;9.58;100.00
59789;BME280;47353;51.614;5.530;2023-12-28T00:42:35;100829.25;;;9.70;100.00
59789;BME280;47353;51.614;5.530;2023-12-28T00:45:00;100828.94;;;9.61;100.00
59789;BME280;47353;51.614;5.530;2023-12-28T00:47:25;100827.91;;;9.82;100.00
59789;BME280;47353;51.614;5.530;2023-12-28T00:49:51;100833.72;;;9.76;100.00
59789;BME280;47353;51.614;5.530;2023-12-28T00:52:16;100834.19;;;9.63;100.00
59789;BME280;47353;51.614;5.530;2023-12-28T00:54:41;100823.72;;;9.75;100.00
59789;BME280;47353;51.614;5.530;2023-12-28T00:57:07;100837.56;;;9.75;100.00
59789;BME280;47353;51.614;5.530;2023-12-28T00:59:32;100837.56;;;9.75;100.00
59789;BME280;47353;51.614;5.530;2023-12-28T01:01:58;100835.34;;;9.77;100.00
59789;BME280;47353;51.614;5.530;2023-12-28T01:04:23;100834.84;;;9.85;100.00
59789;BME280;47353;51.614;5.530;2023-12-28T01:06:49;100835.09;;;9.83;100.00
59789;BME280;47353;51.614;5.530;2023-12-28T01:09:15;100834.78;;;9.75;100.00
59789;BME280;47353;51.614;5.530;2023-12-28T01:11:40;100856.38;;;9.73;100.00
59789;BME280;47353;51.614;5.530;2023-12-28T01:14:06;100849.97;;;9.67;100.00
59789;BME280;47353;51.614;5.530;2023-12-28T01:16:31;100854.75;;;9.87;100.00
59789;BME280;47353;51.614;5.530;2023-12-28T01:18:57;100851.72;;;9.93;100.00
59789;BME280;47353;51.614;5.530;2023-12-28T01:21:22;100858.06;;;9.89;100.00
59789;BME280;47353;51.614;5.530;2023-12-28T01:23:50;100856.97;;;9.90;100.00
59789;BME280;47353;51.614;5.530;2023-12-28T01:26:15;100857.50;;;9.82;100.00
59789;BME280;47353;51.614;5.530;2023-12-28T01:28:42;100863.84;;;9.82;100.00
59789;BME280;47353;51.614;5.530;2023-12-28T01:31:08;100858.34;;;9.92;100.00
59789;BME280;47353;51.614;5.530;2023-12-28T01:33:33;100871.31;;;9.82;100.00
59789;BME280;47353;51.614;5.530;2023-12-28T01:35:59;100865.28;;;9.90;100.00
59789;BME280;47353;51.614;5.530;2023-12-28T01:38:24;100873.00;;;9.88;100.00
59789;BME280;47353;51.614;5.530;2023-12-28T01:40:50;100876.31;;;9.95;100.00
59789;BME280;47353;51.614;5.530;2023-12-28T01:43:15;100861.38;;;9.91;100.00
59789;BME280;47353;51.614;5.530;2023-12-28T01:45:40;100873.56;;;9.90;100.00
59789;BME280;47353;51.614;5.530;2023-12-28T01:48:06;100869.63;;;9.76;100.00
59789;BME280;47353;51.614;5.530;2023-12-28T01:50:32;100863.53;;;9.74;100.00
59789;BME280;47353;51.614;5.530;2023-12-28T01:52:59;100870.75;;;9.80;100.00
59789;BME280;47353;51.614;5.530;2023-12-28T01:55:26;100868.03;;;9.90;100.00
59789;BME280;47353;51.614;5.530;2023-12-28T01:57:53;100871.25;;;9.67;100.00
59789;BME280;47353;51.614;5.530;2023-12-28T02:00:21;100870.25;;;9.93;100.00
59789;BME280;47353;51.614;5.530;2023-12-28T02:02:48;100873.75;;;9.73;100.00
59789;BME280;47353;51.614;5.530;2023-12-28T02:05:14;100879.63;;;9.87;100.00
59789;BME280;47353;51.614;5.530;2023-12-28T02:07:40;100876.00;;;9.81;100.00
59789;BME280;47353;51.614;5.530;2023-12-28T02:10:07;100874.03;;;9.67;100.00
59789;BME280;47353;51.614;5.530;2023-12-28T02:12:33;100869.34;;;9.72;100.00
59789;BME280;47353;51.614;5.530;2023-12-28T02:14:59;100872.06;;;9.62;100.00
59789;BME280;47353;51.614;5.530;2023-12-28T02:20:11;100870.19;;;9.78;100.00
59789;BME280;47353;51.614;5.530;2023-12-28T02:22:37;100878.75;;;9.71;100.00
59789;BME280;47353;51.614;5.530;2023-12-28T02:27:33;100871.25;;;9.67;100.00
59789;BME280;47353;51.614;5.530;2023-12-28T02:29:59;100861.78;;;9.48;100.00
59789;BME280;47353;51.614;5.530;2023-12-28T02:32:35;100854.91;;;9.55;100.00
59789;BME280;47353;51.614;5.530;2023-12-28T02:35:13;100871.78;;;9.64;100.00
59789;BME280;47353;51.614;5.530;2023-12-28T02:37:40;100870.72;;;9.70;100.00
59789;BME280;47353;51.614;5.530;2023-12-28T02:40:07;100863.25;;;9.70;100.00
59789;BME280;47353;51.614;5.530;2023-12-28T02:42:34;100859.09;;;9.68;100.00
59789;BME280;47353;51.614;5.530;2023-12-28T02:44:59;100855.75;;;9.56;100.00
59789;BME280;47353;51.614;5.530;2023-12-28T02:47:25;100860.22;;;9.72;100.00
59789;BME280;47353;51.614;5.530;2023-12-28T02:49:50;100855.53;;;9.72;100.00
59789;BME280;47353;51.614;5.530;2023-12-28T02:52:16;100856.91;;;9.70;100.00
59789;BME280;47353;51.614;5.530;2023-12-28T02:54:41;100860.69;;;9.54;100.00
59789;BME280;47353;51.614;5.530;2023-12-28T02:57:06;100859.34;;;9.61;100.00
59789;BME280;47353;51.614;5.530;2023-12-28T02:59:32;100859.16;;;9.83;100.00
59789;BME280;47353;51.614;5.530;2023-12-28T03:01:57;100861.06;;;9.82;100.00
59789;BME280;47353;51.614;5.530;2023-12-28T03:04:22;100847.25;;;9.77;100.00
59789;BME280;47353;51.614;5.530;2023-12-28T03:06:48;100853.59;;;9.78;100.00
59789;BME280;47353;51.614;5.530;2023-12-28T03:09:13;100839.22;;;9.76;100.00
59789;BME280;47353;51.614;5.530;2023-12-28T03:11:39;100855.59;;;9.97;100.00
59789;BME280;47353;51.614;5.530;2023-12-28T03:14:04;100856.69;;;9.96;100.00
59789;BME280;47353;51.614;5.530;2023-12-28T03:16:29;100847.28;;;9.87;100.00
59789;BME280;47353;51.614;5.530;2023-12-28T03:18:55;100836.47;;;9.81;100.00
59789;BME280;47353;51.614;5.530;2023-12-28T03:21:20;100851.41;;;9.80;100.00
59789;BME280;47353;51.614;5.530;2023-12-28T03:23:45;100853.88;;;9.81;100.00
59789;BME280;47353;51.614;5.530;2023-12-28T03:26:11;100856.09;;;9.79;100.00
59789;BME280;47353;51.614;5.530;2023-12-28T03:28:36;100864.91;;;9.76;100.00
59789;BME280;47353;51.614;5.530;2023-12-28T03:31:02;100869.38;;;9.87;100.00
59789;BME280;47353;51.614;5.530;2023-12-28T03:33:28;100879.63;;;9.92;100.00
59789;BME280;47353;51.614;5.530;2023-12-28T03:35:53;100870.03;;;10.09;100.00
59789;BME280;47353;51.614;5.530;2023-12-28T03:38:19;100882.78;;;10.16;100.00
59789;BME280;47353;51.614;5.530;2023-12-28T03:40:44;100882.69;;;10.05;100.00
59789;BME280;47353;51.614;5.530;2023-12-28T03:43:13;100880.84;;;10.16;100.00
59789;BME280;47353;51.614;5.530;2023-12-28T03:45:38;100861.41;;;9.96;100.00
59789;BME280;47353;51.614;5.530;2023-12-28T03:48:04;100862.84;;;10.13;100.00
59789;BME280;47353;51.614;5.530;2023-12-28T03:50:29;100850.97;;;10.13;100.00
59789;BME280;47353;51.614;5.530;2023-12-28T03:52:54;100842.06;;;10.06;100.00
59789;BME280;47353;51.614;5.530;2023-12-28T03:55:21;100831.28;;;10.04;100.00
59789;BME280;47353;51.614;5.530;2023-12-28T03:57:46;100842.13;;;10.16;100.00
59789;BME280;47353;51.614;5.530;2023-12-28T04:00:13;100851.25;;;10.22;100.00
59789;BME280;47353;51.614;5.530;2023-12-28T04:02:40;100842.66;;;10.18;100.00
59789;BME280;47353;51.614;5.530;2023-12-28T04:05:05;100865.34;;;10.20;100.00
59789;BME280;47353;51.614;5.530;2023-12-28T04:07:32;100843.53;;;10.34;100.00
59789;BME280;47353;51.614;5.530;2023-12-28T04:09:57;100832.75;;;10.27;100.00
59789;BME280;47353;51.614;5.530;2023-12-28T04:12:23;100854.84;;;10.32;100.00
59789;BME280;47353;51.614;5.530;2023-12-28T04:14:49;100846.31;;;10.29;100.00
59789;BME280;47353;51.614;5.530;2023-12-28T04:17:14;100863.69;;;10.24;100.00
59789;BME280;47353;51.614;5.530;2023-12-28T04:19:40;100865.38;;;10.25;100.00
59789;BME280;47353;51.614;5.530;2023-12-28T04:22:05;100860.97;;;10.39;100.00
59789;BME280;47353;51.614;5.530;2023-12-28T04:24:30;100865.66;;;10.34;100.00
59789;BME280;47353;51.614;5.530;2023-12-28T04:26:56;100854.59;;;10.24;100.00
59789;BME280;47353;51.614;5.530;2023-12-28T04:29:21;100875.59;;;10.25;100.00
59789;BME280;47353;51.614;5.530;2023-12-28T04:31:47;100856.25;;;10.40;100.00
59789;BME280;47353;51.614;5.530;2023-12-28T04:34:12;100854.03;;;10.27;100.00
59789;BME280;47353;51.614;5.530;2023-12-28T04:36:41;100852.94;;;10.33;100.00
59789;BME280;47353;51.614;5.530;2023-12-28T04:39:10;100857.09;;;10.30;100.00
59789;BME280;47353;51.614;5.530;2023-12-28T04:41:35;100863.19;;;10.27;100.00
59789;BME280;47353;51.614;5.530;2023-12-28T04:44:01;100859.00;;;10.40;99.56
59789;BME280;47353;51.614;5.530;2023-12-28T04:46:26;100862.88;;;10.34;100.00
59789;BME280;47353;51.614;5.530;2023-12-28T04:48:52;100877.84;;;10.38;99.50
59789;BME280;47353;51.614;5.530;2023-12-28T04:51:17;100875.88;;;10.38;99.55
59789;BME280;47353;51.614;5.530;2023-12-28T04:53:42;100860.94;;;10.24;100.00
59789;BME280;47353;51.614;5.530;2023-12-28T04:56:08;100855.69;;;10.28;99.38
59789;BME280;47353;51.614;5.530;2023-12-28T04:58:33;100855.97;;;10.41;99.21
59789;BME280;47353;51.614;5.530;2023-12-28T05:01:01;100861.22;;;10.33;98.36
59789;BME280;47353;51.614;5.530;2023-12-28T05:03:26;100852.94;;;10.33;98.21
59789;BME280;47353;51.614;5.530;2023-12-28T05:05:52;100863.72;;;10.34;98.59
59789;BME280;47353;51.614;5.530;2023-12-28T05:08:17;100869.81;;;10.36;98.51
59789;BME280;47353;51.614;5.530;2023-12-28T05:10:43;100908.03;;;10.59;96.39
59789;BME280;47353;51.614;5.530;2023-12-28T05:13:08;100883.66;;;10.51;96.24
59789;BME280;47353;51.614;5.530;2023-12-28T05:15:33;100881.44;;;10.48;96.63
59789;BME280;47353;51.614;5.530;2023-12-28T05:17:59;100878.69;;;10.63;95.88
59789;BME280;47353;51.614;5.530;2023-12-28T05:20:24;100918.53;;;10.67;95.36
59789;BME280;47353;51.614;5.530;2023-12-28T05:22:49;100883.69;;;10.71;95.02
59789;BME280;47353;51.614;5.530;2023-12-28T05:25:15;100882.81;;;10.66;93.35
59789;BME280;47353;51.614;5.530;2023-12-28T05:27:40;100882.81;;;10.51;94.79
59789;BME280;47353;51.614;5.530;2023-12-28T05:30:08;100914.91;;;10.37;95.85
59789;BME280;47353;51.614;5.530;2023-12-28T05:32:34;100886.97;;;10.43;95.30
59789;BME280;47353;51.614;5.530;2023-12-28T05:35:00;100890.59;;;10.44;95.43
59789;BME280;47353;51.614;5.530;2023-12-28T05:37:25;100886.13;;;10.43;94.89
59789;BME280;47353;51.614;5.530;2023-12-28T05:39:50;100876.47;;;10.40;94.40
59789;BME280;47353;51.614;5.530;2023-12-28T05:42:16;100911.03;;;10.33;94.86
59789;BME280;47353;51.614;5.530;2023-12-28T05:44:42;100887.81;;;10.29;95.81
59789;BME280;47353;51.614;5.530;2023-12-28T05:47:07;100883.66;;;10.36;95.08
59789;BME280;47353;51.614;5.530;2023-12-28T05:49:33;100886.69;;;10.30;95.47
59789;BME280;47353;51.614;5.530;2023-12-28T05:51:58;100885.28;;;10.32;95.58
59789;BME280;47353;51.614;5.530;2023-12-28T05:54:24;100890.81;;;10.32;95.18
59789;BME280;47353;51.614;5.530;2023-12-28T05:56:49;100864.28;;;10.51;94.55
59789;BME280;47353;51.614;5.530;2023-12-28T05:59:14;100895.81;;;10.35;95.37
59789;BME280;47353;51.614;5.530;2023-12-28T06:01:43;100883.66;;;10.46;94.59
59789;BME280;47353;51.614;5.530;2023-12-28T06:04:09;100897.19;;;10.33;95.78
59789;BME280;47353;51.614;5.530;2023-12-28T06:06:34;100904.41;;;10.54;93.96
59789;BME280;47353;51.614;5.530;2023-12-28T06:09:01;100900.84;;;10.63;93.34
59789;BME280;47353;51.614;5.530;2023-12-28T06:11:28;100902.22;;;10.61;93.08
59789;BME280;47353;51.614;5.530;2023-12-28T06:13:53;100892.53;;;10.68;92.46
59789;BME280;47353;51.614;5.530;2023-12-28T06:16:19;100894.72;;;10.61;93.33
59789;BME280;47353;51.614;5.530;2023-12-28T06:18:44;100901.09;;;10.57;93.31
59789;BME280;47353;51.614;5.530;2023-12-28T06:21:09;100895.28;;;10.63;93.29
59789;BME280;47353;51.614;5.530;2023-12-28T06:23:35;100884.50;;;10.87;91.68
59789;BME280;47353;51.614;5.530;2023-12-28T06:26:04;100902.22;;;10.76;92.72
59789;BME280;47353;51.614;5.530;2023-12-28T06:28:30;100910.53;;;10.76;92.71
59789;BME280;47353;51.614;5.530;2023-12-28T06:30:57;100931.56;;;10.62;93.43
59789;BME280;47353;51.614;5.530;2023-12-28T06:33:26;100916.34;;;10.69;93.05
59789;BME280;47353;51.614;5.530;2023-12-28T06:35:51;100932.13;;;10.64;93.68
59789;BME280;47353;51.614;5.530;2023-12-28T06:38:18;100903.31;;;10.60;93.16
59789;BME280;47353;51.614;5.530;2023-12-28T06:40:43;100920.75;;;10.75;92.40
59789;BME280;47353;51.614;5.530;2023-12-28T06:43:08;100907.75;;;10.66;93.05
59789;BME280;47353;51.614;5.530;2023-12-28T06:45:34;100915.75;;;10.67;93.06
59789;BME280;47353;51.614;5.530;2023-12-28T06:47:59;100933.78;;;10.65;93.19
59789;BME280;47353;51.614;5.530;2023-12-28T06:50:25;100912.44;;;10.60;93.76
59789;BME280;47353;51.614;5.530;2023-12-28T06:52:50;100945.66;;;10.55;93.60
59789;BME280;47353;51.614;5.530;2023-12-28T06:55:15;100939.00;;;10.46;93.80
59789;BME280;47353;51.614;5.530;2023-12-28T06:57:41;100905.78;;;10.46;93.70
59789;BME280;47353;51.614;5.530;2023-12-28T07:00:07;100920.44;;;10.42;94.81
59789;BME280;47353;51.614;5.530;2023-12-28T07:02:32;100939.00;;;10.36;94.06
59789;BME280;47353;51.614;5.530;2023-12-28T07:04:58;100937.34;;;10.40;93.95
59789;BME280;47353;51.614;5.530;2023-12-28T07:07:23;100936.50;;;10.40;93.81
59789;BME280;47353;51.614;5.530;2023-12-28T07:09:49;100926.25;;;10.35;93.65
59789;BME280;47353;51.614;5.530;2023-12-28T07:12:14;100946.19;;;10.37;94.15
59789;BME280;47353;51.614;5.530;2023-12-28T07:14:40;100942.00;;;10.30;94.26
59789;BME280;47353;51.614;5.530;2023-12-28T07:17:05;100964.16;;;10.40;94.12
59789;BME280;47353;51.614;5.530;2023-12-28T07:19:31;100962.25;;;10.55;92.11
59789;BME280;47353;51.614;5.530;2023-12-28T07:21:57;100961.97;;;10.47;92.75
59789;BME280;47353;51.614;5.530;2023-12-28T07:24:23;100961.44;;;10.50;93.09
59789;BME280;47353;51.614;5.530;2023-12-28T07:26:50;100959.75;;;10.39;93.89
59789;BME280;47353;51.614;5.530;2023-12-28T07:29:15;100960.59;;;10.49;93.66
59789;BME280;47353;51.614;5.530;2023-12-28T07:31:41;100976.63;;;10.47;93.30
59789;BME280;47353;51.614;5.530;2023-12-28T07:34:06;100980.50;;;10.46;93.78
59789;BME280;47353;51.614;5.530;2023-12-28T07:36:32;100966.94;;;10.45;93.19
59789;BME280;47353;51.614;5.530;2023-12-28T07:38:57;100972.75;;;10.43;94.61
59789;BME280;47353;51.614;5.530;2023-12-28T07:41:22;100980.78;;;10.35;94.60
59789;BME280;47353;51.614;5.530;2023-12-28T07:43:48;100950.63;;;10.43;94.52
59789;BME280;47353;51.614;5.530;2023-12-28T07:46:14;100981.34;;;10.47;94.23
59789;BME280;47353;51.614;5.530;2023-12-28T07:48:39;100984.91;;;10.37;94.63
59789;BME280;47353;51.614;5.530;2023-12-28T07:51:05;100974.94;;;10.41;94.75
59789;BME280;47353;51.614;5.530;2023-12-28T07:53:31;100991.56;;;10.46;94.49
59789;BME280;47353;51.614;5.530;2023-12-28T07:55:56;100987.69;;;10.37;95.07
59789;BME280;47353;51.614;5.530;2023-12-28T07:58:22;100989.34;;;10.38;95.87
59789;BME280;47353;51.614;5.530;2023-12-28T08:00:47;100996.53;;;10.44;95.47
59789;BME280;47353;51.614;5.530;2023-12-28T08:03:14;101007.06;;;10.37;95.67
59789;BME280;47353;51.614;5.530;2023-12-28T08:05:41;101001.00;;;10.45;95.52
59789;BME280;47353;51.614;5.530;2023-12-28T08:08:06;101007.38;;;10.56;95.14
59789;BME280;47353;51.614;5.530;2023-12-28T08:10:32;101015.13;;;10.59;95.42
59789;BME280;47353;51.614;5.530;2023-12-28T08:12:58;101013.75;;;10.61;94.45
59789;BME280;47353;51.614;5.530;2023-12-28T08:15:23;101012.38;;;10.49;95.32
59789;BME280;47353;51.614;5.530;2023-12-28T08:17:48;101013.75;;;10.61;94.72
59789;BME280;47353;51.614;5.530;2023-12-28T08:20:14;101009.06;;;10.62;94.74
59789;BME280;47353;51.614;5.530;2023-12-28T08:22:39;101011.25;;;10.60;94.57
59789;BME280;47353;51.614;5.530;2023-12-28T08:25:05;101005.47;;;10.56;95.20
59789;BME280;47353;51.614;5.530;2023-12-28T08:27:30;101003.78;;;10.50;96.10
59789;BME280;47353;51.614;5.530;2023-12-28T08:29:56;101001.28;;;10.44;96.11
59789;BME280;47353;51.614;5.530;2023-12-28T08:32:21;100995.19;;;10.47;95.83
59789;BME280;47353;51.614;5.530;2023-12-28T08:34:46;101004.00;;;10.39;96.32
59789;BME280;47353;51.614;5.530;2023-12-28T08:37:13;101008.69;;;10.38;95.98
59789;BME280;47353;51.614;5.530;2023-12-28T08:39:39;101005.13;;;10.43;96.39
59789;BME280;47353;51.614;5.530;2023-12-28T08:42:05;101002.13;;;10.54;94.82
59789;BME280;47353;51.614;5.530;2023-12-28T08:44:31;101026.72;;;10.51;95.21
59789;BME280;47353;51.614;5.530;2023-12-28T08:46:56;101021.53;;;10.59;94.91
59789;BME280;47353;51.614;5.530;2023-12-28T08:49:21;101022.66;;;10.68;94.53
59789;BME280;47353;51.614;5.530;2023-12-28T08:51:47;101018.22;;;10.77;93.44
59789;BME280;47353;51.614;5.530;2023-12-28T08:54:13;101029.25;;;10.67;94.64
59789;BME280;47353;51.614;5.530;2023-12-28T08:56:39;101018.19;;;10.67;94.40
59789;BME280;47353;51.614;5.530;2023-12-28T08:59:05;101045.63;;;10.74;93.82
59789;BME280;47353;51.614;5.530;2023-12-28T09:01:30;101044.25;;;10.71;94.16
59789;BME280;47353;51.614;5.530;2023-12-28T09:03:56;101044.53;;;10.70;94.82
59789;BME280;47353;51.614;5.530;2023-12-28T09:06:21;101047.00;;;10.66;95.44
59789;BME280;47353;51.614;5.530;2023-12-28T09:08:50;101075.53;;;10.72;94.32
59789;BME280;47353;51.614;5.530;2023-12-28T09:11:16;101066.56;;;10.45;95.39
59789;BME280;47353;51.614;5.530;2023-12-28T09:13:42;101046.72;;;10.68;94.63
59789;BME280;47353;51.614;5.530;2023-12-28T09:16:10;101061.56;;;10.42;97.07
59789;BME280;47353;51.614;5.530;2023-12-28T09:18:36;101056.88;;;10.42;97.29
59789;BME280;47353;51.614;5.530;2023-12-28T09:21:06;101062.19;;;10.49;96.58
59789;BME280;47353;51.614;5.530;2023-12-28T09:23:33;101078.22;;;10.47;96.48
59789;BME280;47353;51.614;5.530;2023-12-28T09:25:59;101063.56;;;10.61;95.63
59789;BME280;47353;51.614;5.530;2023-12-28T09:28:24;101067.16;;;10.57;96.32
59789;BME280;47353;51.614;5.530;2023-12-28T09:30:50;101060.81;;;10.56;96.89
59789;BME280;47353;51.614;5.530;2023-12-28T09:33:15;101062.22;;;10.64;94.79
59789;BME280;47353;51.614;5.530;2023-12-28T09:35:41;101061.69;;;10.72;93.87
59789;BME280;47353;51.614;5.530;2023-12-28T09:38:07;101063.91;;;10.75;93.67
59789;BME280;47353;51.614;5.530;2023-12-28T09:40:32;101066.69;;;10.80;92.94
59789;BME280;47353;51.614;5.530;2023-12-28T09:45:33;101066.69;;;10.80;92.23
59789;BME280;47353;51.614;5.530;2023-12-28T09:47:59;101086.63;;;10.82;93.28
59789;BME280;47353;51.614;5.530;2023-12-28T09:50:24;101085.25;;;10.89;92.08
59789;BME280;47353;51.614;5.530;2023-12-28T09:52:52;101077.50;;;10.76;93.72
59789;BME280;47353;51.614;5.530;2023-12-28T09:55:18;101094.63;;;10.78;93.01
59789;BME280;47353;51.614;5.530;2023-12-28T09:57:44;101083.56;;;10.68;92.84
59789;BME280;47353;51.614;5.530;2023-12-28T10:00:12;101121.50;;;10.73;93.28
59789;BME280;47353;51.614;5.530;2023-12-28T10:02:43;101105.72;;;10.73;93.08
59789;BME280;47353;51.614;5.530;2023-12-28T10:05:12;101112.63;;;10.71;93.53
59789;BME280;47353;51.614;5.530;2023-12-28T10:07:43;101109.63;;;10.82;93.13
59789;BME280;47353;51.614;5.530;2023-12-28T10:10:09;101121.19;;;10.69;92.87
59789;BME280;47353;51.614;5.530;2023-12-28T10:12:35;101109.06;;;10.80;92.67
59789;BME280;47353;51.614;5.530;2023-12-28T10:15:01;101111.81;;;10.75;92.81
59789;BME280;47353;51.614;5.530;2023-12-28T10:17:26;101063.03;;;10.64;92.42
59789;BME280;47353;51.614;5.530;2023-12-28T10:19:52;101113.47;;;10.76;91.90
59789;BME280;47353;51.614;5.530;2023-12-28T10:22:19;101105.72;;;10.73;92.60
59789;BME280;47353;51.614;5.530;2023-12-28T10:24:45;101108.56;;;10.93;91.55
59789;BME280;47353;51.614;5.530;2023-12-28T10:27:13;101106.84;;;10.77;91.55
59789;BME280;47353;51.614;5.530;2023-12-28T10:29:38;101093.00;;;10.82;90.84
59789;BME280;47353;51.614;5.530;2023-12-28T10:32:04;101084.72;;;10.92;90.39
59789;BME280;47353;51.614;5.530;2023-12-28T10:34:29;101093.63;;;10.99;89.98
59789;BME280;47353;51.614;5.530;2023-12-28T10:36:55;101081.97;;;11.02;90.05
59789;BME280;47353;51.614;5.530;2023-12-28T10:39:24;101091.94;;;10.98;88.50
59789;BME280;47353;51.614;5.530;2023-12-28T10:41:54;101085.59;;;11.13;88.39
59789;BME280;47353;51.614;5.530;2023-12-28T10:44:23;101098.63;;;11.17;87.79
59789;BME280;47353;51.614;5.530;2023-12-28T10:46:55;101077.56;;;11.11;88.36
59789;BME280;47353;51.614;5.530;2023-12-28T10:49:24;101067.88;;;11.29;87.19
59789;BME280;47353;51.614;5.530;2023-12-28T10:51:52;101088.94;;;11.15;87.71
59789;BME280;47353;51.614;5.530;2023-12-28T10:57:03;101088.69;;;11.92;84.14
59789;BME280;47353;51.614;5.530;2023-12-28T10:59:44;101101.44;;;12.03;83.28
59789;BME280;47353;51.614;5.530;2023-12-28T11:02:15;101094.50;;;11.80;83.29
59789;BME280;47353;51.614;5.530;2023-12-28T11:04:48;101092.84;;;11.59;85.49
59789;BME280;47353;51.614;5.530;2023-12-28T11:07:17;101096.69;;;12.08;83.33
59789;BME280;47353;51.614;5.530;2023-12-28T11:09:43;101076.19;;;11.89;82.75
59789;BME280;47353;51.614;5.530;2023-12-28T11:12:09;101066.19;;;12.03;82.49
59789;BME280;47353;51.614;5.530;2023-12-28T11:14:36;101078.44;;;11.92;82.80
59789;BME280;47353;51.614;5.530;2023-12-28T11:17:04;101073.88;;;12.31;82.04
59789;BME280;47353;51.614;5.530;2023-12-28T11:19:30;101084.66;;;12.43;81.25
59789;BME280;47353;51.614;5.530;2023-12-28T11:21:57;101058.41;;;12.10;80.89
59789;BME280;47353;51.614;5.530;2023-12-28T11:24:26;101063.63;;;12.22;80.28
59789;BME280;47353;51.614;5.530;2023-12-28T11:26:53;101069.50;;;12.00;81.91
59789;BME280;47353;51.614;5.530;2023-12-28T11:29:25;101068.44;;;11.91;83.19
59789;BME280;47353;51.614;5.530;2023-12-28T11:31:51;101055.16;;;11.63;84.29
59789;BME280;47353;51.614;5.530;2023-12-28T11:34:16;101067.06;;;11.84;84.12
59789;BME280;47353;51.614;5.530;2023-12-28T11:36:49;101039.84;;;11.91;83.36
59789;BME280;47353;51.614;5.530;2023-12-28T11:39:28;101043.41;;;12.16;81.79
59789;BME280;47353;51.614;5.530;2023-12-28T11:42:08;101051.81;;;11.81;82.12
59789;BME280;47353;51.614;5.530;2023-12-28T11:44:41;101051.22;;;12.04;81.71
59789;BME280;47353;51.614;5.530;2023-12-28T11:47:16;101049.03;;;11.81;83.21
59789;BME280;47353;51.614;5.530;2023-12-28T11:49:42;101040.19;;;11.64;84.76
59789;BME280;47353;51.614;5.530;2023-12-28T11:52:22;101043.75;;;11.44;84.50
59789;BME280;47353;51.614;5.530;2023-12-28T11:54:48;101038.22;;;11.64;84.40
59789;BME280;47353;51.614;5.530;2023-12-28T11:57:15;101032.16;;;11.62;84.54
59789;BME280;47353;51.614;5.530;2023-12-28T11:59:41;101035.75;;;11.68;83.42
59789;BME280;47353;51.614;5.530;2023-12-28T12:02:07;101030.19;;;11.33;85.34
59789;BME280;47353;51.614;5.530;2023-12-28T12:04:34;101032.41;;;11.31;85.88
59789;BME280;47353;51.614;5.530;2023-12-28T12:07:01;101024.09;;;11.36;85.79
59789;BME280;47353;51.614;5.530;2023-12-28T12:09:28;101044.06;;;11.38;85.88
59789;BME280;47353;51.614;5.530;2023-12-28T12:11:53;101029.63;;;11.16;87.40
59789;BME280;47353;51.614;5.530;2023-12-28T12:14:19;101015.22;;;11.09;88.85
59789;BME280;47353;51.614;5.530;2023-12-28T12:16:44;101026.03;;;11.35;87.19
59789;BME280;47353;51.614;5.530;2023-12-28T12:19:11;101031.28;;;11.17;88.21
59789;BME280;47353;51.614;5.530;2023-12-28T12:21:37;101020.50;;;11.30;87.87
59789;BME280;47353;51.614;5.530;2023-12-28T12:24:02;101021.31;;;11.26;86.94
59789;BME280;47353;51.614;5.530;2023-12-28T12:26:31;101023.84;;;11.22;87.50
59789;BME280;47353;51.614;5.530;2023-12-28T12:28:57;101020.75;;;11.14;87.85
59789;BME280;47353;51.614;5.530;2023-12-28T12:31:23;101005.25;;;11.13;88.24
59789;BME280;47353;51.614;5.530;2023-12-28T12:33:50;101013.00;;;11.16;88.85
59789;BME280;47353;51.614;5.530;2023-12-28T12:36:16;101001.94;;;11.11;87.60
59789;BME280;47353;51.614;5.530;2023-12-28T12:38:42;100998.59;;;11.14;88.13
59789;BME280;47353;51.614;5.530;2023-12-28T12:41:07;101011.63;;;11.08;87.99
59789;BME280;47353;51.614;5.530;2023-12-28T12:43:35;101010.47;;;10.84;89.19
59789;BME280;47353;51.614;5.530;2023-12-28T12:46:00;100987.25;;;11.05;88.41
59789;BME280;47353;51.614;5.530;2023-12-28T12:48:26;101004.97;;;11.14;88.13
59789;BME280;47353;51.614;5.530;2023-12-28T12:50:51;100986.13;;;11.01;88.80
59789;BME280;47353;51.614;5.530;2023-12-28T12:53:16;100999.16;;;11.16;88.62
59789;BME280;47353;51.614;5.530;2023-12-28T12:55:42;100993.06;;;11.24;88.50